To NAV CANADA Home Page Login to a new session Search on AWWS site Disclaimer Vers la page française équivalente Tips FAQ What's new on the site To the Forecasts and Observations / NOTAM section To "File a Flight Plan" website Publications and other links Update of the User's profile FIC Telephone Numbers My Weather Data Folder Route Weather Data Regional Weather Data Local Weather Data To the Forecasts and Observations / NOTAM section
Request Generated 03/19/2019 at 23:30:07 UTC . Weather information available at that time is displayed.

METAR/TAF

FORT SMITH/NT    

METAR CYSM 192300Z 21005KT 180V240 15SM FEW230 16/M03 A2988 RMK CI1 SLP130 DENSITY ALT 1000FT=
METAR CYSM 192200Z 22009KT 15SM FEW230 14/M02 A2990 RMK CI1 SLP135 DENSITY ALT 800FT=
METAR CYSM 192100Z 22009KT 15SM FEW230 14/M03 A2991 RMK CI2 SLP139 DENSITY ALT 700FT=

TAF CYSM 191738Z 1918/2006 VRB03KT P6SM FEW230
BECMG 1918/1920 23006KT
RMK NXT FCST BY 200000Z=
Your time UTC time
Weather data provided by Environment Canada and NAV CANADA